createdAt,value
2023-04-26T11:38:31.897Z,95.30
2023-04-26T11:40:58.807Z,96.40
2023-04-26T11:43:43.774Z,97.30
2023-04-26T11:46:10.970Z,97.90
2023-04-26T11:48:38.703Z,99.70
2023-04-26T11:51:07.385Z,99.00
2023-04-26T11:53:35.435Z,99.60
2023-04-26T11:56:02.458Z,98.50
2023-04-26T11:58:29.537Z,98.70
2023-04-26T12:01:00.598Z,98.40
2023-04-26T12:03:32.493Z,98.80
2023-04-26T12:05:59.538Z,99.50
2023-04-26T12:08:27.444Z,99.70
2023-04-26T12:10:54.471Z,99.90
2023-04-26T12:13:25.046Z,99.60
2023-04-26T12:15:52.688Z,99.60
2023-04-26T12:18:19.999Z,99.90
2023-04-26T12:23:15.432Z,99.90
2023-04-26T12:25:52.577Z,99.90
2023-04-26T12:28:19.848Z,99.90
2023-04-26T12:30:46.771Z,99.90
2023-04-26T12:33:17.209Z,99.90
2023-04-26T12:35:48.098Z,99.90
2023-04-26T12:38:17.643Z,99.90
2023-04-26T12:40:47.620Z,99.90
2023-04-26T12:43:16.885Z,99.90
2023-04-26T12:45:43.958Z,99.90
2023-04-26T12:48:11.919Z,99.90
2023-04-26T12:50:39.278Z,99.90
2023-04-26T12:53:06.694Z,99.90
2023-04-26T12:55:33.730Z,99.90
2023-04-26T12:58:01.148Z,99.90
2023-04-26T13:00:28.350Z,99.90
2023-04-26T13:02:56.078Z,99.90
2023-04-26T13:05:24.778Z,99.90
2023-04-26T13:07:52.157Z,99.90
2023-04-26T13:10:19.225Z,99.90
2023-04-26T13:12:46.551Z,99.90
2023-04-26T13:15:14.329Z,99.90
2023-04-26T13:17:44.491Z,99.90
2023-04-26T13:20:11.901Z,99.90
2023-04-26T13:22:42.494Z,99.90
2023-04-26T13:25:10.543Z,99.90
2023-04-26T13:27:37.563Z,99.90
2023-04-26T13:30:04.721Z,99.90
2023-04-26T13:32:32.230Z,99.90
2023-04-26T13:34:59.440Z,99.90
2023-04-26T13:37:27.010Z,99.90
2023-04-26T13:39:54.375Z,99.90
2023-04-26T13:42:21.460Z,99.90
2023-04-26T13:44:48.491Z,99.90
2023-04-26T13:47:15.744Z,99.90
2023-04-26T13:49:44.824Z,99.90
2023-04-26T13:52:12.067Z,99.90
2023-04-26T13:54:41.846Z,99.90
2023-04-26T13:57:08.953Z,99.90
2023-04-26T13:59:36.171Z,99.90
2023-04-26T14:02:03.849Z,99.90
2023-04-26T14:04:31.053Z,99.90
2023-04-26T14:06:58.836Z,99.90
2023-04-26T14:09:26.534Z,99.90
2023-04-26T14:12:00.856Z,99.90
2023-04-26T14:14:34.865Z,99.90
2023-04-26T14:17:01.984Z,99.90
2023-04-26T14:19:29.216Z,99.90
2023-04-26T14:21:56.109Z,99.90
2023-04-26T14:24:23.043Z,99.90
2023-04-26T14:26:49.987Z,99.90
2023-04-26T14:29:17.307Z,99.90
2023-04-26T14:31:45.180Z,99.90
2023-04-26T14:34:13.402Z,99.90
2023-04-26T14:39:08.041Z,99.90
2023-04-26T14:41:35.050Z,99.90
2023-04-26T14:44:02.218Z,99.90
2023-04-26T14:46:29.487Z,99.90
2023-04-26T14:48:56.629Z,99.90
2023-04-26T14:51:24.175Z,99.90
2023-04-26T14:53:51.174Z,99.90
2023-04-26T14:56:18.131Z,99.90
2023-04-26T14:58:45.294Z,99.90
2023-04-26T15:01:12.209Z,99.90
2023-04-26T15:03:39.678Z,99.90
2023-04-26T15:06:08.181Z,99.90
2023-04-26T15:08:35.955Z,99.90
2023-04-26T15:11:03.666Z,99.90
2023-04-26T15:13:30.854Z,99.90
2023-04-26T15:15:57.906Z,99.90
2023-04-26T15:18:25.109Z,99.90
2023-04-26T15:20:52.142Z,99.90
2023-04-26T15:23:19.405Z,99.90
2023-04-26T15:25:46.627Z,99.90
2023-04-26T15:28:14.562Z,99.90
2023-04-26T15:30:42.910Z,99.90
2023-04-26T15:33:12.718Z,99.90
2023-04-26T15:35:40.026Z,99.90
2023-04-26T15:38:07.214Z,99.90
2023-04-26T15:40:35.288Z,99.90
2023-04-26T15:43:04.513Z,99.90
2023-04-26T15:45:31.471Z,99.90
2023-04-26T15:47:58.684Z,99.90
2023-04-26T15:50:25.627Z,99.90
2023-04-26T15:52:52.705Z,99.90
2023-04-26T15:55:20.013Z,99.90
2023-04-26T15:57:47.099Z,99.90
2023-04-26T16:00:14.595Z,99.90
2023-04-26T16:02:44.833Z,99.90
2023-04-26T16:05:12.599Z,99.90
2023-04-26T16:07:40.384Z,99.90
2023-04-26T16:10:14.760Z,99.90
2023-04-26T16:13:01.702Z,99.90
2023-04-26T16:15:41.923Z,99.90
2023-04-26T16:18:28.684Z,99.90
2023-04-26T16:21:13.361Z,99.90
2023-04-26T16:23:59.710Z,99.90
2023-04-26T16:26:46.828Z,99.90
2023-04-26T16:29:26.677Z,99.90
2023-04-26T16:32:06.942Z,99.90
2023-04-26T16:34:53.687Z,99.90
2023-04-26T16:37:41.887Z,99.90
2023-04-26T16:40:21.680Z,99.90
2023-04-26T16:43:09.381Z,99.90
2023-04-26T16:45:49.711Z,99.90
2023-04-26T16:48:46.752Z,99.90
2023-04-26T16:51:33.861Z,99.90
2023-04-26T16:54:14.673Z,99.90
2023-04-26T16:57:03.743Z,99.90
2023-04-26T16:59:43.684Z,99.90
2023-04-26T17:02:24.304Z,99.90
2023-04-26T17:05:11.073Z,99.90
2023-04-26T17:07:57.827Z,99.90
2023-04-26T17:10:38.811Z,99.90
2023-04-26T17:13:19.923Z,99.90
2023-04-26T17:16:07.805Z,99.90
2023-04-26T17:18:54.788Z,99.90
2023-04-26T17:21:34.746Z,99.90
2023-04-26T17:24:28.704Z,99.90
2023-04-26T17:27:15.849Z,99.90
2023-04-26T17:30:02.702Z,99.90
2023-04-26T17:32:49.803Z,99.90
2023-04-26T17:35:29.900Z,99.90
2023-04-26T17:38:16.820Z,99.90
2023-04-26T17:41:00.879Z,99.90
2023-04-26T17:43:47.771Z,99.90
2023-04-26T17:46:34.766Z,99.90
2023-04-26T17:49:21.746Z,99.90
2023-04-26T17:52:08.785Z,99.90
2023-04-26T17:54:56.011Z,99.90
2023-04-26T17:57:35.754Z,99.90
2023-04-26T18:00:22.911Z,99.90
2023-04-26T18:03:04.907Z,99.90
2023-04-26T18:05:51.976Z,99.90
2023-04-26T18:08:35.550Z,99.90
2023-04-26T18:11:22.891Z,99.90
2023-04-26T18:14:03.772Z,99.90
2023-04-26T18:16:44.035Z,99.90
2023-04-26T18:19:30.891Z,99.90
2023-04-26T18:22:17.836Z,99.90
2023-04-26T18:25:11.835Z,99.90
2023-04-26T18:27:58.886Z,99.90
2023-04-26T18:30:38.787Z,99.90
2023-04-26T18:33:26.208Z,99.90
2023-04-26T18:36:05.805Z,99.90
2023-04-26T18:39:00.977Z,99.90
2023-04-26T18:41:41.149Z,99.90
2023-04-26T18:44:27.813Z,99.90
2023-04-26T18:47:15.020Z,99.90
2023-04-26T18:49:54.791Z,99.90
2023-04-26T18:52:35.549Z,99.90
2023-04-26T18:55:23.826Z,99.90
2023-04-26T18:58:10.967Z,99.90
2023-04-26T19:00:50.811Z,99.90
2023-04-26T19:03:38.100Z,99.90
2023-04-26T19:06:21.829Z,99.90
2023-04-26T19:09:11.833Z,99.90
2023-04-26T19:11:51.901Z,99.90
2023-04-26T19:14:32.278Z,99.90
2023-04-26T19:17:18.835Z,99.90
2023-04-26T19:20:07.509Z,99.90
2023-04-26T19:22:51.858Z,99.90
2023-04-26T19:25:39.022Z,99.90
2023-04-26T19:28:18.932Z,99.90
2023-04-26T19:31:06.132Z,99.90
2023-04-26T19:33:46.857Z,99.90
2023-04-26T19:36:35.858Z,99.90
2023-04-26T19:39:16.919Z,99.90
2023-04-26T19:42:04.157Z,99.90
2023-04-26T19:44:45.869Z,99.90
2023-04-26T19:47:40.073Z,99.90
2023-04-26T19:50:27.048Z,99.90
2023-04-26T19:53:06.886Z,99.90
2023-04-26T19:55:54.042Z,99.90
2023-04-26T19:58:33.868Z,99.90
2023-04-26T20:01:21.086Z,99.90
2023-04-26T20:04:02.087Z,99.90
2023-04-26T20:06:49.023Z,99.90
2023-04-26T20:09:29.882Z,99.90
2023-04-26T20:12:17.010Z,99.90
2023-04-26T20:14:56.930Z,99.90
2023-04-26T20:17:44.047Z,99.90
2023-04-26T20:20:24.987Z,99.90
2023-04-26T20:23:12.308Z,99.90
2023-04-26T20:25:58.964Z,99.90
2023-04-26T20:28:40.065Z,99.90
2023-04-26T20:31:27.086Z,99.90
2023-04-26T20:34:08.030Z,99.90
2023-04-26T20:36:54.937Z,99.90
2023-04-26T20:39:35.070Z,99.90
2023-04-26T20:42:21.927Z,99.90
2023-04-26T20:45:02.600Z,99.90
2023-04-26T20:47:49.990Z,99.90
2023-04-26T20:50:30.041Z,99.90
2023-04-26T20:53:16.956Z,99.90
2023-04-26T20:56:07.929Z,99.90
2023-04-26T20:58:55.423Z,99.90
2023-04-26T21:01:34.983Z,99.90
2023-04-26T21:04:22.291Z,99.90
2023-04-26T21:07:01.962Z,99.90
2023-04-26T21:09:49.333Z,99.90
2023-04-26T21:12:28.966Z,99.90
2023-04-26T21:15:16.230Z,99.90
2023-04-26T21:17:55.992Z,99.90
2023-04-26T21:20:43.085Z,99.90
2023-04-26T21:23:23.005Z,99.90
2023-04-26T21:26:10.126Z,99.90
2023-04-26T21:28:49.990Z,99.90
2023-04-26T21:31:37.119Z,99.90
2023-04-26T21:34:16.969Z,99.90
2023-04-26T21:37:04.083Z,99.90
2023-04-26T21:39:43.961Z,99.90
2023-04-26T21:42:31.242Z,99.90
2023-04-26T21:45:12.129Z,99.90
2023-04-26T21:48:06.109Z,99.90
2023-04-26T21:50:55.110Z,99.90
2023-04-26T21:53:35.010Z,99.90
2023-04-26T21:56:22.177Z,99.90
2023-04-26T21:59:02.027Z,99.90
2023-04-26T22:01:49.141Z,99.90
2023-04-26T22:04:30.136Z,99.90
2023-04-26T22:07:17.518Z,99.90
2023-04-26T22:09:57.008Z,99.90
2023-04-26T22:12:44.136Z,99.90
2023-04-26T22:15:24.099Z,99.90
2023-04-26T22:18:11.167Z,99.90
2023-04-26T22:20:51.110Z,99.90
2023-04-26T22:23:38.214Z,99.90
2023-04-26T22:26:32.042Z,99.90
2023-04-26T22:29:19.117Z,99.90
2023-04-26T22:31:59.209Z,99.90
2023-04-26T22:34:46.314Z,99.90
2023-04-26T22:37:26.079Z,99.90
2023-04-26T22:40:13.133Z,99.90
2023-04-26T22:42:53.038Z,99.90
2023-04-26T22:45:40.245Z,99.90
2023-04-26T22:48:20.057Z,99.90
2023-04-26T22:51:07.387Z,99.90
2023-04-26T22:56:28.374Z,99.90
2023-04-26T22:59:15.085Z,99.90
2023-04-26T23:02:09.201Z,99.90
2023-04-26T23:04:56.188Z,99.90
2023-04-26T23:07:43.092Z,99.90
2023-04-26T23:10:30.346Z,99.90
2023-04-26T23:13:10.067Z,99.90
2023-04-26T23:15:57.257Z,99.90
2023-04-26T23:18:38.099Z,99.90
2023-04-26T23:21:25.196Z,99.90
2023-04-26T23:24:05.113Z,99.90
2023-04-26T23:26:59.120Z,99.90
2023-04-26T23:29:46.100Z,99.90
2023-04-26T23:32:26.311Z,99.90
2023-04-26T23:35:13.201Z,99.90
2023-04-26T23:37:53.368Z,99.90
2023-04-26T23:40:40.109Z,99.90
2023-04-26T23:43:20.281Z,99.90
2023-04-26T23:46:07.217Z,99.90
2023-04-26T23:48:47.272Z,99.90
2023-04-26T23:51:34.144Z,99.90
2023-04-26T23:54:14.272Z,99.90
2023-04-26T23:57:01.144Z,99.90
2023-04-26T23:59:41.224Z,99.90
